Terminal Aerodrome Forecast
Issued by NWS Jackson, KY

Home | Current Version | Previous Version | Text Only | Print | Product List | Glossary On
Versions: 1 2 3 4 5 6 7 8 9 10 11 12 13 14 15
000
FTUS43 KJKL 181100
TAFJKL
TAF
KJKL 181121Z 1812/1912 29005KT P6SM BKN035
     FM182100 31004KT P6SM VCSH OVC030
     FM190200 32003KT P6SM OVC020
     FM190500 VRB03KT P6SM BKN015=

USA.gov is the U.S. government's official web portal to all federal, state and local government web resources and services.